Latest Weather Observations for Clermont Airport

IDQ60801

Issued at 10:32 pm EST Saturday 10 December 2016 (issued every 30 minutes, with the page automatically refreshed every 10 minutes)

About weather observations | Map of weather stations | Latest weather observations for QLD | Other Formats
Station Details ID: 035124 Name: CLERMONT AIRPORT Lat: -22.78 Lon: 147.62 Height: 270.27 m
Data from the previous 72 hours. | See also: Recent months at Clermont Airport
Date/Time
EST
Temp
°C
App
Temp
°C
Dew
Point
°C
Rel
Hum
%
Delta-T
°C
Wind Press
QNH
hPa
Press
MSL
hPa
Rain since
9am
mm
Dir  Spd
km/h
Gust
km/h
Spd
kts
Gust
kts
10/10:00pm 19.9 21.7 18.2 90 1.1 NNE 6 7 3 4 1017.5 1015.7 14.4
10/09:30pm 19.8 22.6 17.9 89 1.2 CALM 0 2 0 1 1017.6 1015.8 14.4
10/09:00pm 19.9 21.0 17.9 88 1.2 ENE 9 19 5 10 1017.5 1015.7 12.8
10/08:30pm 20.2 21.0 18.1 88 1.3 ENE 11 22 6 12 1017.5 1015.7 10.4
10/08:00pm 22.1 24.8 20.2 89 1.2 E 6 19 3 10 1017.2 1015.4 9.4
10/07:30pm 22.3 24.8 20.2 88 1.4 ESE 7 13 4 7 1016.5 1014.7 9.2
10/07:00pm 22.9 27.2 21.2 90 1.1 CALM 0 2 0 1 1016.2 1014.4 9.0
10/06:30pm 23.1 27.4 21.2 89 1.3 CALM 0 0 0 0 1015.7 1013.9 7.6
10/06:00pm 23.3 27.5 21.0 87 1.5 CALM 0 2 0 1 1015.3 1013.5 6.2
10/05:30pm 23.8 27.1 20.7 83 2.0 NE 4 7 2 4 1014.8 1012.9 5.0
10/05:00pm 24.3 27.3 20.8 81 2.3 ENE 6 17 3 9 1014.0 1012.2 5.0
10/04:30pm 24.3 25.3 21.0 82 2.2 SE 17 24 9 13 1012.9 1011.1 5.0
10/04:00pm 24.6 26.3 20.9 80 2.5 SE 13 24 7 13 1012.8 1011.0 5.0
10/03:30pm 24.3 25.3 21.0 82 2.2 SSE 17 24 9 13 1013.1 1011.3 4.8
10/03:00pm 25.9 27.1 20.7 73 3.4 SSE 15 24 8 13 1013.3 1011.5 2.2
10/02:30pm 29.4 31.4 20.8 60 5.8 ESE 11 20 6 11 1013.6 1011.8 1.2
10/02:00pm 28.0 31.2 20.6 64 4.9 SSE 4 7 2 4 1013.9 1012.1 1.2
10/01:30pm 27.0 29.8 20.8 69 4.1 SSE 7 9 4 5 1014.5 1012.6 1.2
10/01:00pm 26.4 29.3 20.7 71 3.8 SSE 6 9 3 5 1015.1 1013.3 1.2
10/12:30pm 25.1 27.5 20.8 77 2.8 SSE 9 17 5 9 1015.6 1013.8 1.2
10/12:00pm 25.8 29.5 21.5 77 2.9 E 4 7 2 4 1015.8 1014.0 1.2
10/11:30am 24.8 28.7 21.9 84 2.0 SSW 4 6 2 3 1016.0 1014.2 0.8
10/11:00am 24.6 28.2 21.3 82 2.2 S 4 7 2 4 1016.4 1014.6 0.6
10/10:30am 26.1 29.6 20.4 71 3.8 NW 2 6 1 3 1016.5 1014.7 0.0
10/10:00am 26.0 28.5 20.3 71 3.8 SE 7 11 4 6 1016.4 1014.6 0.0
10/09:30am 25.5 28.2 20.3 73 3.4 ESE 6 9 3 5 1016.7 1014.9 0.0
10/09:00am 25.0 27.4 20.0 74 3.3 ESE 7 13 4 7 1016.5 1014.7 4.8
10/08:30am 24.7 27.4 20.2 76 3.0 E 6 9 3 5 1016.6 1014.8 4.8
10/08:00am 24.0 26.9 19.9 78 2.7 ENE 4 6 2 3 1016.7 1014.9 4.8
10/07:30am 23.6 26.7 20.3 82 2.2 ESE 4 9 2 5 1016.2 1014.4 4.8
10/07:00am 23.2 25.7 20.3 84 1.9 SE 7 9 4 5 1015.6 1013.8 4.8
10/06:30am 22.6 25.3 20.3 87 1.5 SE 6 7 3 4 1015.2 1013.4 4.8
10/06:00am 22.2 25.3 20.3 89 1.2 ESE 4 6 2 3 1015.2 1013.4 4.8
10/05:30am 22.0 25.5 20.3 90 1.1 E 2 6 1 3 1014.7 1012.8 4.8
10/05:00am 21.9 25.8 20.4 91 1.0 CALM 0 0 0 0 1014.3 1012.4 4.8
10/04:30am 21.7 24.8 20.3 92 0.9 E 4 6 2 3 1013.7 1011.9 4.8
10/04:00am 21.7 24.4 20.2 91 1.0 E 6 9 3 5 1013.6 1011.8 4.8
10/03:30am 21.9 24.7 20.4 91 1.0 SE 6 9 3 5 1013.5 1011.7 4.8
10/03:00am 22.0 25.1 20.3 90 1.1 SSE 4 7 2 4 1013.7 1011.9 4.4
10/02:30am 22.3 26.1 20.2 88 1.4 CALM 0 0 0 0 1013.8 1012.0 2.4
10/02:00am 22.8 25.6 19.6 82 2.1 WSW 4 6 2 3 1013.8 1012.0 0.4
10/01:30am 23.3 25.8 19.0 77 2.8 WSW 4 6 2 3 1013.8 1012.0 0.0
10/01:00am 23.7 25.4 18.6 73 3.3 SSW 7 9 4 5 1013.8 1012.0 0.0
10/12:30am 24.3 26.6 18.5 70 3.7 S 4 6 2 3 1014.0 1012.2 0.0
10/12:00am 24.8 27.2 18.0 66 4.3 SE 2 7 1 4 1014.6 1012.7 0.0
 
Date/Time
EST
Temp
°C
App
Temp
°C
Dew
Point
°C
Rel
Hum
%
Delta-T
°C
Wind Press
QNH
hPa
Press
MSL
hPa
Rain since
9am
mm
Dir  Spd
km/h
Gust
km/h
Spd
kts
Gust
kts
09/11:30pm 25.0 25.4 17.2 62 4.9 ESE 11 24 6 13 1014.5 1012.6 0.0
09/11:00pm 25.5 26.3 17.4 61 5.1 ESE 9 15 5 8 1013.8 1012.0 0.0
09/10:30pm 25.4 26.1 17.1 60 5.2 ESE 9 15 5 8 1014.0 1012.2 0.0
09/10:00pm 25.7 26.2 17.4 60 5.2 SE 11 19 6 10 1014.0 1012.2 0.0
09/09:30pm 25.8 25.8 17.2 59 5.4 SE 13 20 7 11 1013.2 1011.4 0.0
09/09:00pm 26.2 26.8 17.6 59 5.5 SSE 11 19 6 10 1012.7 1010.9 0.0
09/08:30pm 26.6 26.7 17.4 57 5.8 SSE 13 20 7 11 1013.0 1011.2 0.0
09/08:00pm 26.6 28.2 17.9 59 5.6 SSE 6 9 3 5 1013.2 1011.4 0.0
09/07:30pm 27.0 28.5 17.5 56 6.0 SE 6 9 3 5 1013.2 1011.4 0.0
09/07:00pm 28.0 28.0 16.3 49 7.3 SSE 11 15 6 8 1012.9 1011.1 0.0
09/06:30pm 28.7 27.2 16.3 47 7.8 S 19 28 10 15 1012.4 1010.6 0.0
09/06:00pm 29.3 27.5 16.1 44 8.3 SSE 20 28 11 15 1012.0 1010.2 0.0
09/05:30pm 30.4 28.6 16.0 41 9.0 SSE 20 32 11 17 1011.2 1009.3 0.0
09/05:00pm 30.8 29.6 17.1 43 8.8 SSE 19 32 10 17 1010.7 1008.8 0.0
09/04:30pm - - - - - SE 24 41 13 22 1009.7 1007.9 0.0
09/04:00pm - - - - - SSE 28 44 15 24 1009.1 1007.3 0.0
09/03:30pm - - - - - S 26 39 14 21 1009.3 1007.5 0.0
09/03:15pm 33.2 30.8 16.5 36 10.7 SSE 24 50 13 27 1009.3 1007.5 0.0
09/03:00pm 35.3 34.1 15.1 30 12.8 SSE 15 28 8 15 1009.1 1007.3 0.0
09/02:30pm 35.0 34.3 15.3 30 12.4 SE 13 24 7 13 1009.3 1007.5 0.0
09/02:00pm 34.6 34.1 15.0 31 12.3 SSE 11 19 6 10 1009.8 1008.0 0.0
09/01:30pm 34.5 33.0 15.4 32 12.1 SSE 17 28 9 15 1010.3 1008.4 0.0
09/01:00pm 34.8 35.2 15.2 31 12.4 S 7 19 4 10 1010.7 1008.8 0.0
09/12:30pm 35.2 34.5 16.5 33 12.0 S 15 24 8 13 1011.0 1009.1 0.0
09/12:00pm 33.6 33.3 16.5 36 10.9 SSE 13 28 7 15 1011.2 1009.3 0.0
09/11:30am 33.6 33.1 16.9 37 10.7 SSE 15 32 8 17 1011.6 1009.8 0.0
09/11:00am 32.4 32.4 16.3 38 10.2 SSE 11 24 6 13 1012.2 1010.4 0.0
09/10:30am 32.1 31.9 16.8 40 9.8 SSE 13 32 7 17 1012.3 1010.5 0.0
09/10:00am 31.1 30.6 15.9 40 9.6 SE 13 22 7 12 1012.6 1010.8 0.0
09/09:30am 30.3 30.2 16.0 42 9.0 SSE 11 19 6 10 1012.8 1011.0 0.0
09/09:00am 30.0 30.6 16.8 45 8.4 SE 9 22 5 12 1013.0 1011.2 0.0
09/08:30am 28.4 29.0 16.7 49 7.4 ESE 9 17 5 9 1013.0 1011.2 0.0
09/08:00am 28.3 29.4 17.2 51 7.1 E 7 13 4 7 1013.1 1011.3 0.0
09/07:30am 26.7 26.8 16.6 54 6.3 SSE 11 15 6 8 1013.3 1011.5 0.0
09/07:00am 25.9 26.1 16.7 57 5.8 SE 11 15 6 8 1013.5 1011.7 0.0
09/06:30am 25.2 26.1 16.6 59 5.4 SE 7 11 4 6 1013.3 1011.5 0.0
09/06:00am 24.1 25.9 16.4 62 4.8 S 2 4 1 2 1013.0 1011.2 0.0
09/05:30am 23.1 24.4 16.2 65 4.2 S 4 6 2 3 1012.4 1010.6 0.0
09/05:00am 23.1 23.9 15.9 64 4.4 ENE 6 7 3 4 1011.8 1010.0 0.0
09/04:30am 23.8 25.1 16.1 62 4.7 SE 4 6 2 3 1011.9 1010.1 0.0
09/04:00am 24.4 25.1 16.1 60 5.1 S 7 9 4 5 1011.9 1010.1 0.0
09/03:30am 24.6 25.8 15.8 58 5.4 ESE 4 6 2 3 1011.5 1009.6 0.0
09/03:00am 24.9 25.8 15.2 54 5.9 SE 4 6 2 3 1011.3 1009.4 0.0
09/02:30am 25.5 27.3 15.5 54 6.1 CALM 0 0 0 0 1011.0 1009.1 0.0
09/02:00am 26.2 27.0 15.9 53 6.4 NE 6 7 3 4 1010.4 1008.5 0.0
09/01:30am 26.8 27.4 15.8 51 6.8 N 7 9 4 5 1010.3 1008.4 0.0
09/01:00am 27.1 27.7 15.8 50 7.0 N 7 13 4 7 1010.4 1008.5 0.0
09/12:30am 27.4 27.6 15.7 48 7.2 NNE 9 13 5 7 1010.1 1008.3 0.0
09/12:00am 28.0 27.3 15.3 46 7.8 NNE 13 19 7 10 1010.3 1008.4 0.0
 
Date/Time
EST
Temp
°C
App
Temp
°C
Dew
Point
°C
Rel
Hum
%
Delta-T
°C
Wind Press
QNH
hPa
Press
MSL
hPa
Rain since
9am
mm
Dir  Spd
km/h
Gust
km/h
Spd
kts
Gust
kts
08/11:30pm 28.4 27.2 13.9 41 8.8 NNE 13 19 7 10 1010.0 1008.2 0.0
08/11:00pm 29.3 28.8 12.7 36 9.9 NE 7 17 4 9 1010.4 1008.5 0.0
08/10:30pm 30.1 27.8 13.0 35 10.3 NNE 17 26 9 14 1010.4 1008.5 0.0
08/10:00pm 31.1 30.6 13.8 34 10.6 NE 9 20 5 11 1010.0 1008.2 0.0
08/09:30pm 32.3 31.3 13.5 32 11.5 NNE 11 17 6 9 1009.5 1007.7 0.0
08/09:00pm 33.0 32.6 14.1 32 11.7 NNE 9 17 5 9 1009.0 1007.2 0.0
08/08:30pm 33.5 33.1 14.0 30 12.0 NNE 9 15 5 8 1008.6 1006.8 0.0
08/08:00pm 34.1 33.5 13.5 28 12.7 NE 9 13 5 7 1008.1 1006.2 0.0
08/07:30pm 35.0 34.5 13.8 28 13.1 NE 9 19 5 10 1007.9 1006.0 0.0
08/07:00pm 35.7 35.6 13.8 27 13.6 NE 7 17 4 9 1007.6 1005.7 0.0
08/06:30pm 36.4 36.1 13.2 25 14.3 NE 7 17 4 9 1007.2 1005.3 0.0
08/06:00pm 36.9 35.4 13.0 24 14.7 NE 13 20 7 11 1007.0 1005.1 0.0
08/05:30pm 38.4 37.2 12.9 22 15.8 NE 11 22 6 12 1006.7 1004.8 0.0
08/05:00pm 38.1 36.5 12.7 22 15.7 NNE 13 22 7 12 1006.5 1004.6 0.0
08/04:30pm 39.0 37.8 12.7 21 16.2 N 11 17 6 9 1006.4 1004.5 0.0
08/04:00pm 38.8 38.4 12.5 21 16.2 WSW 6 15 3 8 1006.5 1004.6 0.0
08/03:30pm - - - - - NE 15 28 8 15 1006.9 1005.0 0.0
08/03:00pm 38.5 37.9 12.3 21 16.1 NW 7 17 4 9 1007.2 1005.3 0.0
08/02:30pm - - - - - NNE 11 20 6 11 1007.5 1005.6 0.0
08/02:00pm - - - - - NNE 11 24 6 13 1007.9 1006.0 0.0
08/01:30pm 38.1 36.9 12.7 22 15.6 NNW 11 30 6 16 1008.5 1006.7 0.0
08/01:00pm 36.7 34.5 12.2 23 14.9 NNE 15 24 8 13 1009.2 1007.4 0.0
08/12:30pm 36.4 35.1 12.6 24 14.5 NE 11 33 6 18 1009.6 1007.8 0.0
08/12:00pm 35.1 34.1 13.3 27 13.4 N 11 24 6 13 1010.4 1008.5 0.0
08/11:30am 34.8 34.6 13.6 28 13.1 N 7 19 4 10 1010.9 1009.0 0.0
08/11:00am 33.3 32.8 13.9 31 11.9 N 9 19 5 10 1011.5 1009.6 0.0
08/10:30am 32.4 31.4 14.5 33 11.1 N 13 20 7 11 1011.9 1010.1 0.0
08/10:00am 31.9 31.7 15.8 38 10.1 N 11 19 6 10 1012.2 1010.4 0.0
08/09:30am 30.2 30.8 16.9 44 8.5 NNE 9 19 5 10 1012.7 1010.9 0.0
08/09:00am 29.4 30.2 18.2 51 7.2 N 11 22 6 12 1013.1 1011.3 0.0
08/08:30am 28.3 28.8 18.4 55 6.4 N 13 22 7 12 1013.3 1011.5 0.0
08/08:00am 27.7 28.7 18.7 58 5.8 N 11 17 6 9 1013.5 1011.7 0.0
08/07:30am 25.8 26.6 18.2 63 4.9 N 11 19 6 10 1013.3 1011.5 0.0
08/07:00am 24.5 25.1 18.7 70 3.7 NNE 13 19 7 10 1013.1 1011.3 0.0
08/06:30am 24.2 25.2 18.6 71 3.6 NNE 11 19 6 10 1012.8 1011.0 0.0
08/06:00am 23.1 24.9 18.2 74 3.1 NE 6 13 3 7 1012.6 1010.8 0.0
08/05:30am 22.7 24.3 17.8 74 3.1 NNE 6 9 3 5 1012.1 1010.3 0.0
08/05:00am 23.1 24.3 17.3 70 3.6 NNE 7 9 4 5 1012.0 1010.2 0.0
08/04:30am 23.4 24.9 16.7 66 4.2 NE 4 6 2 3 1012.1 1010.3 0.0
08/04:00am 23.8 25.0 16.8 65 4.4 NE 6 9 3 5 1011.8 1010.0 0.0
08/03:30am 24.2 25.4 15.9 59 5.1 E 4 7 2 4 1011.9 1010.1 0.0
08/03:00am 24.7 26.3 15.9 58 5.4 ESE 2 6 1 3 1011.8 1010.0 0.0
08/02:30am 25.5 26.8 16.1 56 5.8 E 4 7 2 4 1011.9 1010.1 0.0
08/02:00am 26.1 26.9 16.4 55 6.0 SE 7 15 4 8 1011.9 1010.1 0.0
08/01:30am 26.1 27.0 16.1 54 6.2 NNE 6 9 3 5 1011.4 1009.5 0.0
08/01:00am 26.9 27.6 16.2 52 6.7 NNE 7 13 4 7 1011.4 1009.5 0.0
08/12:30am 27.4 28.1 16.1 50 7.0 NE 7 15 4 8 1011.6 1009.8 0.0
08/12:00am 28.3 27.4 16.9 50 7.2 NNE 17 26 9 14 1011.6 1009.8 0.0
 
Date/Time
EST
Temp
°C
App
Temp
°C
Dew
Point
°C
Rel
Hum
%
Delta-T
°C
Wind Press
QNH
hPa
Press
MSL
hPa
Rain since
9am
mm
Dir  Spd
km/h
Gust
km/h
Spd
kts
Gust
kts
07/11:30pm 28.7 27.8 16.9 48 7.5 N 17 30 9 16 1011.9 1010.1 0.0
07/11:00pm 29.4 28.9 16.9 47 7.9 NNE 15 26 8 14 1011.9 1010.1 0.0

Other Formats:

Comma delimited format used in spreadsheet applications
http://www.bom.gov.au/fwo/IDQ60801/IDQ60801.94395.axf

JavaScript Object Notation format (JSON) in row-major order
http://www.bom.gov.au/fwo/IDQ60801/IDQ60801.94395.json